メインページ
METAR-TAF:

METAR-TAF

空港 :

イースター島, チリ

マタベリ国際空港

緯度: 27-09S, 経度: 109-25W, 海抜: 51m

現時点の気象観測

当レポートは22分前の21:00(UTC)に作成
西/北西の風 11kt、西から北西の間で変化する
気温 22°C
湿度 73%
気圧 1013 hPa
視程10km以上
高度3000ftの雲はほとんどない

METAR: SCIP 202100Z 29011KT 260V320 9999 FEW030 22/17 Q1013 NOSIG

時間: 16:22 (21:22 UTC)

予報

当レポートは4時間52分前の16:30(UTC)に作成
予報は20日の 18時(UTC)から 21日の 18時(UTC)まで有効
西の風 10kt
視程10km以上
高度2000ftの雲は散在している
高度4000ftの雲は散在している
20日の 19時(UTC)から 20日の 21時(UTC)まで徐々に
西の風 10kt
高度2000ftの雲は散在している
21日の 04時(UTC)から 21日の 06時(UTC)まで徐々に
南西の風 5kt
21日の 08時(UTC)から 21日の 18時(UTC)まで一時的に
南/南西の風 5kt
視程: 7000m
高度1800ftの千切れ雲あり
高度4000ftの千切れ雲あり
弱いにわか雨

TAF: SCIP 201630Z 2018/2118 27010KT 9999 SCT020 SCT040 TX23/2020Z TN16 /2111Z BECMG 2019/2021 26010KT SCT020 BECMG 2104/2106 23005KT TEMPO 2108/2118 20005KT 7000 -SHRA BKN018 BKN040

4,000以上の空港の気象観測と天気予報(METAR報とTAF報)

利用可能な観測所は地図上に黄色い丸と赤い丸で示す。

丸の上にカーソルを重ねると観測所名を参照できる。

次にクリックすると気象観測と天気予報を参照できる。

マップの切り替え:黒色「×」印の緑ボタンをクリックして拡大、「-」印の緑ボタンをクリックして縮小、緑色の三角印をクリックして隣りの地図に切り替え


METAR-TAF: